createdAt,value
2023-01-30T00:00:09.953Z,6.38
2023-01-30T00:02:37.438Z,6.68
2023-01-30T00:05:04.781Z,6.58
2023-01-30T00:07:31.976Z,6.52
2023-01-30T00:09:59.504Z,6.39
2023-01-30T00:12:26.656Z,6.37
2023-01-30T00:14:53.815Z,6.33
2023-01-30T00:17:21.286Z,6.22
2023-01-30T00:19:48.447Z,6.67
2023-01-30T00:22:15.580Z,6.49
2023-01-30T00:24:43.109Z,6.37
2023-01-30T00:27:10.346Z,6.13
2023-01-30T00:29:37.544Z,6.04
2023-01-30T00:32:05.028Z,6.13
2023-01-30T00:34:32.213Z,5.74
2023-01-30T00:37:08.252Z,5.02
2023-01-30T00:39:36.087Z,5.67
2023-01-30T00:42:21.961Z,5.86
2023-01-30T00:45:08.136Z,5.84
2023-01-30T00:47:35.296Z,5.90
2023-01-30T00:50:03.267Z,6.12
2023-01-30T00:52:30.415Z,5.08
2023-01-30T00:54:57.581Z,5.45
2023-01-30T00:57:25.208Z,5.61
2023-01-30T00:59:52.362Z,5.34
2023-01-30T01:02:19.535Z,5.15
2023-01-30T01:04:46.960Z,5.58
2023-01-30T01:07:14.457Z,5.37
2023-01-30T01:09:42.028Z,5.71
2023-01-30T01:12:09.461Z,5.91
2023-01-30T01:14:37.625Z,6.17
2023-01-30T01:17:05.171Z,5.61
2023-01-30T01:19:32.607Z,5.78
2023-01-30T01:21:59.879Z,6.01
2023-01-30T01:24:27.911Z,5.83
2023-01-30T01:26:55.328Z,5.55
2023-01-30T01:29:22.492Z,5.77
2023-01-30T01:31:50.656Z,5.80
2023-01-30T01:34:18.134Z,5.65
2023-01-30T01:36:54.051Z,5.75
2023-01-30T01:39:22.344Z,5.64
2023-01-30T01:41:50.566Z,5.43
2023-01-30T01:44:17.779Z,5.56
2023-01-30T01:46:47.454Z,5.90
2023-01-30T01:49:14.574Z,5.63
2023-01-30T01:51:43.001Z,5.58
2023-01-30T01:54:11.831Z,5.80
2023-01-30T01:56:42.956Z,5.79
2023-01-30T01:59:21.639Z,5.72
2023-01-30T02:01:48.834Z,5.66
2023-01-30T02:04:36.219Z,5.62
2023-01-30T02:07:03.353Z,5.62
2023-01-30T02:09:30.824Z,5.88
2023-01-30T02:11:58.934Z,5.57
2023-01-30T02:14:28.662Z,5.71
2023-01-30T02:16:55.819Z,5.78
2023-01-30T02:19:24.848Z,5.72
2023-01-30T02:22:10.886Z,5.62
2023-01-30T02:24:47.617Z,5.58
2023-01-30T02:27:30.464Z,5.86
2023-01-30T02:29:57.946Z,5.48
2023-01-30T02:32:36.608Z,5.18
2023-01-30T02:35:24.923Z,5.20
2023-01-30T02:37:52.103Z,5.42
2023-01-30T02:40:19.571Z,5.56
2023-01-30T02:43:15.622Z,5.41
2023-01-30T02:46:12.779Z,5.57
2023-01-30T02:49:00.165Z,5.45
2023-01-30T02:51:30.704Z,5.58
2023-01-30T02:53:57.931Z,5.34
2023-01-30T02:56:25.601Z,5.52
2023-01-30T02:58:57.808Z,5.48
2023-01-30T03:01:28.155Z,5.45
2023-01-30T03:04:05.487Z,5.79
2023-01-30T03:07:02.860Z,5.31
2023-01-30T03:09:52.489Z,5.29
2023-01-30T03:12:41.096Z,5.57
2023-01-30T03:15:08.548Z,5.65
2023-01-30T03:17:35.726Z,5.54
2023-01-30T03:20:03.268Z,5.50
2023-01-30T03:22:30.725Z,5.34
2023-01-30T03:24:57.888Z,5.29
2023-01-30T03:27:25.084Z,5.61
2023-01-30T03:29:52.857Z,5.41
2023-01-30T03:32:20.811Z,5.34
2023-01-30T03:34:48.018Z,5.39
2023-01-30T03:37:15.483Z,5.15
2023-01-30T03:39:42.915Z,5.15
2023-01-30T03:42:10.850Z,5.17
2023-01-30T03:44:38.366Z,5.21
2023-01-30T03:47:06.548Z,5.42
2023-01-30T03:49:33.775Z,5.19
2023-01-30T03:52:01.269Z,5.25
2023-01-30T03:54:29.766Z,5.23
2023-01-30T03:56:56.950Z,5.01
2023-01-30T03:59:24.490Z,5.05
2023-01-30T04:01:52.044Z,4.91
2023-01-30T04:04:19.582Z,5.26
2023-01-30T04:06:46.839Z,5.26
2023-01-30T04:09:14.101Z,5.26
2023-01-30T04:11:59.845Z,5.40
2023-01-30T04:14:27.952Z,5.30
2023-01-30T04:17:03.348Z,5.22
2023-01-30T04:19:31.387Z,5.03
2023-01-30T04:21:58.974Z,5.20
2023-01-30T04:24:26.430Z,5.22
2023-01-30T04:26:53.953Z,4.93
2023-01-30T04:29:21.333Z,5.06
2023-01-30T04:31:49.290Z,5.04
2023-01-30T04:34:16.975Z,5.12
2023-01-30T04:36:44.251Z,4.64
2023-01-30T04:39:11.979Z,4.59
2023-01-30T04:41:40.259Z,4.83
2023-01-30T04:44:07.451Z,4.70
2023-01-30T04:46:35.419Z,4.91
2023-01-30T04:49:03.330Z,5.06
2023-01-30T04:51:30.642Z,4.81
2023-01-30T04:53:57.891Z,4.96
2023-01-30T04:56:25.393Z,5.33
2023-01-30T04:58:53.077Z,5.22
2023-01-30T05:01:23.422Z,5.21
2023-01-30T05:03:51.834Z,5.00
2023-01-30T05:06:20.107Z,4.88
2023-01-30T05:08:50.547Z,4.80
2023-01-30T05:11:18.298Z,4.83
2023-01-30T05:13:45.697Z,4.83
2023-01-30T05:16:13.886Z,4.96
2023-01-30T05:18:41.481Z,4.95
2023-01-30T05:21:09.630Z,5.15
2023-01-30T05:23:36.849Z,4.86
2023-01-30T05:26:04.571Z,4.78
2023-01-30T05:28:31.895Z,4.67
2023-01-30T05:31:05.996Z,4.85
2023-01-30T05:33:33.557Z,5.13
2023-01-30T05:36:00.728Z,5.18
2023-01-30T05:38:28.238Z,5.05
2023-01-30T05:41:02.685Z,4.90
2023-01-30T05:43:30.054Z,4.75
2023-01-30T05:45:58.166Z,4.91
2023-01-30T05:48:25.520Z,4.83
2023-01-30T05:50:53.033Z,4.88
2023-01-30T05:53:20.839Z,5.08
2023-01-30T05:55:54.668Z,4.86
2023-01-30T05:58:22.126Z,4.83
2023-01-30T06:00:49.291Z,4.87
2023-01-30T06:03:16.711Z,4.74
2023-01-30T06:05:43.860Z,4.73
2023-01-30T06:08:11.011Z,4.94
2023-01-30T06:10:38.476Z,4.81
2023-01-30T06:13:05.618Z,4.79
2023-01-30T06:15:32.897Z,4.82
2023-01-30T06:18:00.436Z,5.01
2023-01-30T06:20:27.639Z,4.66
2023-01-30T06:22:54.781Z,4.86
2023-01-30T06:25:22.197Z,4.76
2023-01-30T06:27:49.725Z,4.86
2023-01-30T06:30:16.963Z,4.82
2023-01-30T06:32:44.483Z,4.51
2023-01-30T06:35:11.635Z,4.78
2023-01-30T06:37:38.777Z,4.61
2023-01-30T06:40:09.485Z,4.97
2023-01-30T06:42:36.634Z,5.15
2023-01-30T06:45:03.963Z,4.96
2023-01-30T06:47:31.374Z,5.03
2023-01-30T06:49:58.539Z,5.11
2023-01-30T06:52:25.961Z,5.29
2023-01-30T06:54:53.403Z,5.16
2023-01-30T06:57:20.544Z,5.34
2023-01-30T06:59:47.678Z,5.52
2023-01-30T07:02:15.193Z,5.20
2023-01-30T07:04:42.610Z,5.44
2023-01-30T07:07:09.750Z,5.02
2023-01-30T07:09:37.203Z,5.29
2023-01-30T07:12:04.391Z,5.28
2023-01-30T07:14:31.531Z,5.37
2023-01-30T07:16:59.000Z,5.56
2023-01-30T07:19:26.199Z,5.73
2023-01-30T07:21:53.608Z,5.78
2023-01-30T07:24:21.044Z,4.92
2023-01-30T07:26:48.602Z,5.80
2023-01-30T07:29:15.759Z,5.70
2023-01-30T07:31:43.896Z,5.80
2023-01-30T07:34:11.312Z,6.16
2023-01-30T07:36:39.176Z,5.78
2023-01-30T07:39:46.595Z,4.59
2023-01-30T07:42:13.739Z,5.56
2023-01-30T07:44:41.187Z,5.91
2023-01-30T07:47:08.411Z,6.03
2023-01-30T07:49:35.596Z,5.58
2023-01-30T07:52:03.060Z,6.60
2023-01-30T07:54:30.380Z,6.88
2023-01-30T07:56:57.538Z,6.54
2023-01-30T07:59:25.050Z,6.15
2023-01-30T08:01:52.251Z,6.66
2023-01-30T08:04:19.732Z,6.38
2023-01-30T08:06:47.142Z,5.73
2023-01-30T08:09:14.468Z,6.32
2023-01-30T08:11:42.098Z,6.64
2023-01-30T08:14:09.252Z,6.61
2023-01-30T08:16:37.121Z,6.92
2023-01-30T08:19:05.180Z,6.84
2023-01-30T08:21:32.525Z,7.59
2023-01-30T08:24:01.200Z,7.54
2023-01-30T08:26:28.766Z,7.63
2023-01-30T08:28:56.109Z,7.01
2023-01-30T08:31:23.492Z,7.05
2023-01-30T08:33:50.997Z,7.38
2023-01-30T08:36:20.905Z,7.29
2023-01-30T08:38:48.084Z,7.93
2023-01-30T08:41:15.525Z,6.91
2023-01-30T08:43:42.685Z,6.89
2023-01-30T08:46:09.898Z,6.22
2023-01-30T08:48:49.608Z,6.36
2023-01-30T08:51:17.454Z,6.51
2023-01-30T08:53:46.036Z,6.59
2023-01-30T08:56:13.620Z,6.62
2023-01-30T08:58:40.944Z,6.29
2023-01-30T09:01:08.422Z,6.55
2023-01-30T09:03:38.026Z,6.21
2023-01-30T09:06:05.319Z,6.16
2023-01-30T09:08:32.777Z,6.12
2023-01-30T09:11:04.211Z,6.67
2023-01-30T09:13:31.493Z,6.83
2023-01-30T09:15:59.340Z,6.02
2023-01-30T09:18:26.503Z,6.77
2023-01-30T09:20:53.948Z,6.77
2023-01-30T09:23:21.419Z,6.39
2023-01-30T09:25:48.556Z,6.86
2023-01-30T09:28:15.683Z,7.24
2023-01-30T09:30:43.447Z,6.00
2023-01-30T09:33:10.674Z,6.79
2023-01-30T09:35:37.838Z,7.04
2023-01-30T09:38:05.761Z,7.37
2023-01-30T09:40:33.129Z,6.65
2023-01-30T09:43:03.437Z,6.02
2023-01-30T09:45:30.840Z,5.97
2023-01-30T09:48:12.103Z,6.16
2023-01-30T09:50:45.181Z,6.24
2023-01-30T09:53:20.731Z,5.84
2023-01-30T09:55:48.285Z,6.46
2023-01-30T09:58:22.532Z,6.85
2023-01-30T10:00:51.891Z,7.17
2023-01-30T10:03:20.216Z,7.04
2023-01-30T10:05:53.818Z,7.40
2023-01-30T10:08:27.171Z,7.32
2023-01-30T10:11:10.708Z,7.17
2023-01-30T10:13:42.636Z,6.03
2023-01-30T10:16:09.920Z,6.82
2023-01-30T10:18:46.348Z,6.90
2023-01-30T10:21:22.717Z,7.17
2023-01-30T10:23:49.806Z,6.86
2023-01-30T10:26:20.028Z,7.41
2023-01-30T10:29:06.658Z,7.46
2023-01-30T10:31:48.572Z,6.85
2023-01-30T10:34:21.925Z,6.60
2023-01-30T10:36:58.347Z,6.75
2023-01-30T10:39:29.967Z,6.41
2023-01-30T10:42:07.002Z,6.20
2023-01-30T10:44:34.637Z,6.49
2023-01-30T10:47:22.945Z,6.42
2023-01-30T10:49:51.879Z,6.31
2023-01-30T10:52:38.094Z,6.76
2023-01-30T10:55:14.711Z,6.54
2023-01-30T10:57:53.205Z,7.33
2023-01-30T11:00:49.720Z,7.34
2023-01-30T11:03:17.295Z,7.09
2023-01-30T11:05:53.460Z,7.55
2023-01-30T11:08:23.717Z,7.32
2023-01-30T11:10:51.276Z,6.53
2023-01-30T11:13:19.609Z,6.14
2023-01-30T11:15:48.548Z,5.73
2023-01-30T11:18:58.240Z,6.51
2023-01-30T11:21:07.873Z,6.60
2023-01-30T11:23:36.238Z,6.77
2023-01-30T11:26:11.225Z,7.23
2023-01-30T11:28:41.290Z,6.85
2023-01-30T11:31:28.184Z,7.23
2023-01-30T11:34:06.485Z,6.76
2023-01-30T11:36:34.861Z,7.09
2023-01-30T11:39:03.738Z,7.24
2023-01-30T11:41:31.234Z,7.66
2023-01-30T11:44:02.797Z,7.63
2023-01-30T11:46:31.167Z,7.68
2023-01-30T11:49:03.597Z,7.66
2023-01-30T11:51:47.079Z,7.29
2023-01-30T11:54:21.537Z,7.36
2023-01-30T11:56:49.462Z,6.22
2023-01-30T11:59:19.872Z,7.16
2023-01-30T12:01:47.097Z,7.47
2023-01-30T12:04:14.724Z,7.29
2023-01-30T12:06:42.777Z,7.55
2023-01-30T12:09:28.455Z,8.15
2023-01-30T12:11:56.031Z,7.78
2023-01-30T12:14:35.683Z,7.70
2023-01-30T12:17:12.336Z,8.10
2023-01-30T12:19:53.859Z,7.64
2023-01-30T12:22:40.066Z,7.74
2023-01-30T12:25:21.090Z,7.82
2023-01-30T12:28:03.665Z,7.32
2023-01-30T12:30:52.030Z,8.04
2023-01-30T12:33:19.682Z,7.05
2023-01-30T12:35:47.173Z,7.63
2023-01-30T12:38:37.623Z,7.15
2023-01-30T12:41:08.161Z,8.31
2023-01-30T12:43:35.282Z,7.99
2023-01-30T12:46:02.440Z,8.37
2023-01-30T12:51:35.011Z,7.79
2023-01-30T12:54:21.348Z,8.23
2023-01-30T12:56:57.021Z,8.12
2023-01-30T12:59:39.262Z,8.26
2023-01-30T13:02:21.761Z,7.89
2023-01-30T13:05:04.029Z,8.16
2023-01-30T13:07:40.880Z,8.25
2023-01-30T13:10:10.952Z,8.44
2023-01-30T13:12:41.171Z,7.51
2023-01-30T13:15:27.458Z,8.10
2023-01-30T13:18:15.251Z,7.42
2023-01-30T13:20:42.654Z,7.41
2023-01-30T13:23:09.794Z,7.30
2023-01-30T13:25:56.282Z,7.19
2023-01-30T13:28:28.262Z,6.93
2023-01-30T13:30:55.531Z,7.70
2023-01-30T13:33:24.029Z,7.70
2023-01-30T13:35:52.877Z,7.58
2023-01-30T13:38:21.295Z,7.55
2023-01-30T13:40:48.967Z,7.55
2023-01-30T13:43:20.019Z,7.57
2023-01-30T13:45:47.739Z,7.49
2023-01-30T13:48:21.184Z,7.71
2023-01-30T13:50:48.560Z,7.42
2023-01-30T13:53:18.867Z,7.87
2023-01-30T13:55:49.395Z,7.93
2023-01-30T13:58:44.352Z,7.77
2023-01-30T14:01:12.642Z,7.58
2023-01-30T14:03:40.865Z,7.48
2023-01-30T14:06:12.251Z,7.39
2023-01-30T14:08:41.527Z,7.61
2023-01-30T14:11:31.063Z,7.81
2023-01-30T14:14:02.457Z,7.01
2023-01-30T14:17:02.287Z,7.64
2023-01-30T14:19:29.739Z,8.02
2023-01-30T14:21:57.381Z,8.21
2023-01-30T14:24:25.084Z,7.57
2023-01-30T14:26:58.253Z,7.83
2023-01-30T14:29:37.293Z,8.02
2023-01-30T14:32:19.213Z,8.07
2023-01-30T14:34:46.444Z,7.94
2023-01-30T14:37:43.084Z,7.66
2023-01-30T14:40:22.614Z,8.28
2023-01-30T14:43:16.287Z,7.97
2023-01-30T14:45:52.636Z,8.88
2023-01-30T14:48:39.006Z,8.42
2023-01-30T14:51:21.338Z,8.46
2023-01-30T14:53:51.649Z,8.55
2023-01-30T14:56:18.866Z,8.66
2023-01-30T14:58:56.855Z,8.39
2023-01-30T15:01:24.295Z,8.64
2023-01-30T15:03:51.446Z,8.05
2023-01-30T15:06:19.825Z,8.56
2023-01-30T15:08:47.586Z,8.55
2023-01-30T15:11:19.409Z,8.49
2023-01-30T15:13:49.822Z,8.50
2023-01-30T15:16:29.405Z,8.02
2023-01-30T15:19:03.960Z,8.62
2023-01-30T15:21:49.882Z,8.13
2023-01-30T15:24:35.669Z,8.37
2023-01-30T15:27:07.505Z,8.78
2023-01-30T15:29:34.903Z,8.85
2023-01-30T15:32:03.118Z,8.92
2023-01-30T15:34:31.054Z,8.84
2023-01-30T15:36:58.587Z,8.68
2023-01-30T15:39:26.801Z,7.85
2023-01-30T15:41:57.195Z,8.13
2023-01-30T15:44:24.639Z,8.56
2023-01-30T15:46:51.759Z,8.35
2023-01-30T15:49:37.433Z,8.61
2023-01-30T15:52:05.277Z,8.72
2023-01-30T15:54:32.552Z,7.63
2023-01-30T15:57:00.199Z,6.83
2023-01-30T15:59:29.424Z,7.62
2023-01-30T16:02:03.526Z,7.23
2023-01-30T16:04:31.131Z,8.24
2023-01-30T16:06:58.284Z,8.23
2023-01-30T16:09:25.751Z,7.87
2023-01-30T16:11:53.339Z,8.08
2023-01-30T16:14:21.547Z,7.19
2023-01-30T16:16:48.945Z,7.83
2023-01-30T16:19:19.538Z,8.01
2023-01-30T16:21:48.055Z,7.38
2023-01-30T16:24:18.864Z,7.34
2023-01-30T16:26:46.945Z,7.90
2023-01-30T16:29:15.323Z,8.09
2023-01-30T16:31:43.275Z,7.69
2023-01-30T16:34:30.383Z,8.18
2023-01-30T16:36:59.554Z,7.64
2023-01-30T16:39:34.317Z,6.81
2023-01-30T16:42:02.524Z,5.80
2023-01-30T16:44:31.167Z,5.97
2023-01-30T16:47:07.144Z,5.49
2023-01-30T16:49:35.463Z,5.80
2023-01-30T16:52:02.597Z,7.02
2023-01-30T16:54:30.552Z,7.38
2023-01-30T16:56:58.773Z,7.03
2023-01-30T16:59:33.511Z,5.92
2023-01-30T17:02:02.169Z,5.98
2023-01-30T17:04:30.441Z,5.65
2023-01-30T17:07:00.458Z,6.55
2023-01-30T17:09:34.226Z,5.78
2023-01-30T17:12:01.702Z,5.99
2023-01-30T17:14:32.918Z,6.71
2023-01-30T17:17:07.710Z,6.91
2023-01-30T17:19:35.731Z,6.83
2023-01-30T17:22:04.253Z,5.77
2023-01-30T17:24:32.319Z,5.75
2023-01-30T17:27:01.979Z,6.21
2023-01-30T17:29:42.470Z,7.23
2023-01-30T17:32:12.190Z,7.10
2023-01-30T17:34:41.375Z,6.72
2023-01-30T17:37:10.852Z,5.45
2023-01-30T17:39:39.190Z,5.46
2023-01-30T17:42:10.947Z,6.23
2023-01-30T17:44:39.486Z,7.24
2023-01-30T17:47:08.475Z,6.82
2023-01-30T17:49:35.776Z,6.79
2023-01-30T17:52:03.542Z,7.17
2023-01-30T17:54:32.215Z,6.68
2023-01-30T17:57:01.512Z,6.59
2023-01-30T17:59:30.190Z,6.25
2023-01-30T18:01:57.670Z,7.90
2023-01-30T18:04:26.070Z,6.90
2023-01-30T18:06:57.379Z,7.38
2023-01-30T18:09:27.320Z,7.68
2023-01-30T18:11:54.932Z,7.74
2023-01-30T18:14:23.768Z,8.27
2023-01-30T18:16:51.957Z,8.61
2023-01-30T18:19:24.368Z,9.35
2023-01-30T18:21:52.852Z,9.18
2023-01-30T18:24:20.789Z,9.41
2023-01-30T18:26:48.809Z,9.64
2023-01-30T18:29:17.385Z,9.91
2023-01-30T18:31:45.363Z,10.14
2023-01-30T18:34:13.825Z,9.92
2023-01-30T18:36:42.351Z,9.22
2023-01-30T18:39:11.791Z,9.64
2023-01-30T18:41:40.454Z,8.07
2023-01-30T18:44:11.207Z,7.19
2023-01-30T18:46:40.574Z,6.30
2023-01-30T18:49:09.273Z,7.36
2023-01-30T18:51:39.018Z,6.75
2023-01-30T18:54:10.056Z,6.52
2023-01-30T18:56:39.298Z,6.92
2023-01-30T18:59:07.925Z,7.41
2023-01-30T19:01:38.469Z,7.64
2023-01-30T19:04:08.061Z,7.16
2023-01-30T19:06:40.316Z,7.56
2023-01-30T19:09:09.214Z,7.68
2023-01-30T19:11:56.110Z,8.14
2023-01-30T19:14:24.891Z,8.01
2023-01-30T19:16:53.172Z,8.04
2023-01-30T19:19:21.530Z,7.00
2023-01-30T19:21:53.343Z,7.11
2023-01-30T19:24:22.405Z,7.52
2023-01-30T19:26:51.461Z,7.59
2023-01-30T19:29:19.807Z,6.64
2023-01-30T19:31:49.919Z,7.48
2023-01-30T19:34:19.850Z,6.58
2023-01-30T19:36:48.218Z,6.20
2023-01-30T19:39:15.821Z,6.65
2023-01-30T19:41:44.395Z,6.73
2023-01-30T19:44:13.008Z,7.49
2023-01-30T19:46:40.912Z,7.56
2023-01-30T19:49:10.793Z,6.69
2023-01-30T19:51:38.967Z,6.83
2023-01-30T19:54:09.954Z,6.97
2023-01-30T19:56:41.623Z,7.52
2023-01-30T19:59:11.877Z,7.48
2023-01-30T20:01:41.217Z,8.03
2023-01-30T20:04:10.352Z,8.36
2023-01-30T20:06:39.020Z,8.45
2023-01-30T20:09:07.970Z,7.75
2023-01-30T20:11:39.414Z,8.55
2023-01-30T20:14:10.904Z,8.04
2023-01-30T20:16:40.094Z,8.43
2023-01-30T20:19:09.290Z,8.67
2023-01-30T20:21:37.725Z,8.18
2023-01-30T20:24:07.596Z,9.19
2023-01-30T20:26:37.655Z,9.31
2023-01-30T20:29:06.230Z,9.89
2023-01-30T20:31:35.745Z,9.88
2023-01-30T20:34:04.598Z,9.33
2023-01-30T20:36:32.730Z,9.47
2023-01-30T20:39:04.581Z,10.07
2023-01-30T20:41:33.985Z,10.07
2023-01-30T20:44:02.443Z,9.86
2023-01-30T20:46:32.345Z,8.94
2023-01-30T20:49:02.163Z,7.51
2023-01-30T20:51:35.157Z,8.15
2023-01-30T20:54:05.418Z,8.75
2023-01-30T20:56:35.171Z,8.24
2023-01-30T20:59:05.036Z,7.77
2023-01-30T21:01:32.753Z,7.61
2023-01-30T21:04:04.437Z,7.19
2023-01-30T21:06:42.777Z,7.79
2023-01-30T21:09:18.058Z,7.64
2023-01-30T21:11:46.238Z,8.10
2023-01-30T21:14:16.618Z,7.98
2023-01-30T21:16:46.051Z,7.18
2023-01-30T21:19:16.162Z,6.76
2023-01-30T21:21:46.966Z,5.51
2023-01-30T21:24:15.205Z,6.66
2023-01-30T21:26:46.107Z,6.25
2023-01-30T21:29:14.630Z,5.90
2023-01-30T21:31:43.766Z,5.21
2023-01-30T21:34:11.682Z,5.20
2023-01-30T21:36:39.310Z,6.09
2023-01-30T21:39:25.896Z,5.65
2023-01-30T21:42:13.743Z,6.53
2023-01-30T21:44:41.470Z,6.58
2023-01-30T21:47:09.237Z,6.62
2023-01-30T21:49:40.641Z,6.08
2023-01-30T21:52:08.628Z,6.65
2023-01-30T21:54:36.440Z,6.32
2023-01-30T21:57:03.845Z,7.10
2023-01-30T21:59:31.950Z,7.02
2023-01-30T22:01:59.114Z,6.79
2023-01-30T22:04:26.611Z,7.25
2023-01-30T22:06:53.758Z,5.82
2023-01-30T22:09:20.928Z,6.21
2023-01-30T22:11:51.151Z,6.24
2023-01-30T22:14:18.322Z,6.50
2023-01-30T22:16:45.446Z,7.09
2023-01-30T22:19:14.279Z,7.19
2023-01-30T22:21:41.504Z,6.86
2023-01-30T22:24:08.986Z,6.20
2023-01-30T22:26:36.790Z,6.96
2023-01-30T22:29:04.646Z,6.55
2023-01-30T22:31:34.666Z,6.23
2023-01-30T22:34:02.596Z,6.20
2023-01-30T22:36:30.392Z,5.35
2023-01-30T22:38:57.544Z,6.83
2023-01-30T22:41:25.750Z,6.32
2023-01-30T22:43:55.550Z,6.48
2023-01-30T22:46:23.611Z,5.56
2023-01-30T22:48:51.060Z,5.91
2023-01-30T22:51:19.293Z,6.20
2023-01-30T22:53:47.464Z,6.30
2023-01-30T22:56:15.822Z,6.92
2023-01-30T22:58:43.453Z,6.02
2023-01-30T23:01:14.768Z,6.78
2023-01-30T23:03:43.240Z,7.07
2023-01-30T23:06:11.479Z,7.06
2023-01-30T23:08:39.313Z,6.09
2023-01-30T23:11:08.397Z,6.45
2023-01-30T23:13:35.719Z,7.15
2023-01-30T23:16:04.330Z,7.06
2023-01-30T23:18:50.590Z,7.35
2023-01-30T23:21:17.764Z,6.51
2023-01-30T23:23:45.634Z,6.40
2023-01-30T23:26:12.859Z,6.58
2023-01-30T23:28:40.314Z,6.96
2023-01-30T23:31:11.602Z,6.27
2023-01-30T23:33:38.928Z,6.37
2023-01-30T23:36:07.084Z,5.62
2023-01-30T23:38:34.516Z,5.13
2023-01-30T23:41:27.730Z,5.41
2023-01-30T23:43:55.671Z,5.50
2023-01-30T23:46:26.969Z,5.69
2023-01-30T23:48:55.562Z,4.61
2023-01-30T23:51:23.943Z,5.29
2023-01-30T23:53:51.527Z,5.16
2023-01-30T23:56:19.535Z,5.30
2023-01-30T23:58:47.095Z,5.41
